sensor_id;sensor_type;location;lat;lon;timestamp;temperature;humidity
15676;DHT22;7938;47.666;9.434;2023-01-10T05:02:39;3.50;99.90
15676;DHT22;7938;47.666;9.434;2023-01-10T05:05:09;3.50;99.90
15676;DHT22;7938;47.666;9.434;2023-01-10T05:07:36;3.50;99.90
15676;DHT22;7938;47.666;9.434;2023-01-10T05:10:03;3.40;99.90
15676;DHT22;7938;47.666;9.434;2023-01-10T05:12:30;3.40;99.90
15676;DHT22;7938;47.666;9.434;2023-01-10T05:14:57;3.40;99.90
15676;DHT22;7938;47.666;9.434;2023-01-10T05:17:24;3.40;99.90
15676;DHT22;7938;47.666;9.434;2023-01-10T05:19:52;3.40;99.90
15676;DHT22;7938;47.666;9.434;2023-01-10T05:22:19;3.40;99.90
15676;DHT22;7938;47.666;9.434;2023-01-10T05:24:46;3.40;99.90
15676;DHT22;7938;47.666;9.434;2023-01-10T05:27:13;3.40;99.90
15676;DHT22;7938;47.666;9.434;2023-01-10T05:29:40;3.40;99.90
15676;DHT22;7938;47.666;9.434;2023-01-10T05:32:07;3.50;99.90
15676;DHT22;7938;47.666;9.434;2023-01-10T05:34:34;3.50;99.90
15676;DHT22;7938;47.666;9.434;2023-01-10T05:37:03;3.50;99.90
15676;DHT22;7938;47.666;9.434;2023-01-10T05:39:29;3.50;99.90
15676;DHT22;7938;47.666;9.434;2023-01-10T05:41:56;2.50;99.90
15676;DHT22;7938;47.666;9.434;2023-01-10T05:44:23;3.40;99.90
15676;DHT22;7938;47.666;9.434;2023-01-10T05:46:50;3.40;99.90
15676;DHT22;7938;47.666;9.434;2023-01-10T05:49:17;3.40;99.90
15676;DHT22;7938;47.666;9.434;2023-01-10T05:51:44;3.40;99.90
15676;DHT22;7938;47.666;9.434;2023-01-10T05:54:12;3.40;99.90
15676;DHT22;7938;47.666;9.434;2023-01-10T05:56:39;3.40;99.90
15676;DHT22;7938;47.666;9.434;2023-01-10T05:59:06;3.40;99.90
15676;DHT22;7938;47.666;9.434;2023-01-10T06:01:33;3.40;99.90
15676;DHT22;7938;47.666;9.434;2023-01-10T06:03:59;3.50;99.90
15676;DHT22;7938;47.666;9.434;2023-01-10T06:06:26;3.50;99.90
15676;DHT22;7938;47.666;9.434;2023-01-10T06:08:53;3.60;99.90
15676;DHT22;7938;47.666;9.434;2023-01-10T06:11:22;3.60;99.90
15676;DHT22;7938;47.666;9.434;2023-01-10T06:13:54;3.60;99.90
15676;DHT22;7938;47.666;9.434;2023-01-10T06:16:21;3.60;99.90
15676;DHT22;7938;47.666;9.434;2023-01-10T06:18:48;3.60;99.90
15676;DHT22;7938;47.666;9.434;2023-01-10T06:21:15;3.70;99.90
15676;DHT22;7938;47.666;9.434;2023-01-10T06:23:42;3.60;99.90
15676;DHT22;7938;47.666;9.434;2023-01-10T06:26:09;3.50;99.90
15676;DHT22;7938;47.666;9.434;2023-01-10T06:28:37;3.50;99.90
15676;DHT22;7938;47.666;9.434;2023-01-10T06:31:05;3.50;99.90
15676;DHT22;7938;47.666;9.434;2023-01-10T06:33:33;3.40;99.90
15676;DHT22;7938;47.666;9.434;2023-01-10T06:36:00;3.40;99.90
15676;DHT22;7938;47.666;9.434;2023-01-10T06:38:27;3.30;99.90
15676;DHT22;7938;47.666;9.434;2023-01-10T06:40:54;3.30;99.90
15676;DHT22;7938;47.666;9.434;2023-01-10T06:43:20;3.30;99.90
15676;DHT22;7938;47.666;9.434;2023-01-10T06:45:49;3.30;99.90
15676;DHT22;7938;47.666;9.434;2023-01-10T06:48:16;3.30;99.90
15676;DHT22;7938;47.666;9.434;2023-01-10T06:50:42;3.30;99.90
15676;DHT22;7938;47.666;9.434;2023-01-10T06:53:09;3.30;99.90
15676;DHT22;7938;47.666;9.434;2023-01-10T06:55:36;3.20;99.90
15676;DHT22;7938;47.666;9.434;2023-01-10T06:58:04;3.30;99.90
15676;DHT22;7938;47.666;9.434;2023-01-10T07:00:31;3.40;99.90
15676;DHT22;7938;47.666;9.434;2023-01-10T07:03:00;3.40;99.90
15676;DHT22;7938;47.666;9.434;2023-01-10T07:05:27;3.40;99.90
15676;DHT22;7938;47.666;9.434;2023-01-10T07:07:55;3.40;99.90
15676;DHT22;7938;47.666;9.434;2023-01-10T07:10:23;3.40;99.90
15676;DHT22;7938;47.666;9.434;2023-01-10T07:12:50;3.40;99.90
15676;DHT22;7938;47.666;9.434;2023-01-10T07:15:17;3.50;99.90
15676;DHT22;7938;47.666;9.434;2023-01-10T07:17:44;3.50;99.90
15676;DHT22;7938;47.666;9.434;2023-01-10T07:20:12;3.40;99.90
15676;DHT22;7938;47.666;9.434;2023-01-10T07:22:39;3.40;99.90
15676;DHT22;7938;47.666;9.434;2023-01-10T07:25:06;3.40;99.90
15676;DHT22;7938;47.666;9.434;2023-01-10T07:27:33;3.40;99.90
15676;DHT22;7938;47.666;9.434;2023-01-10T07:30:00;3.50;99.90
15676;DHT22;7938;47.666;9.434;2023-01-10T07:32:27;3.70;99.90
15676;DHT22;7938;47.666;9.434;2023-01-10T07:34:54;3.60;99.90
15676;DHT22;7938;47.666;9.434;2023-01-10T07:37:23;3.50;99.90
15676;DHT22;7938;47.666;9.434;2023-01-10T07:39:49;3.50;99.90
15676;DHT22;7938;47.666;9.434;2023-01-10T07:42:16;3.50;99.90
15676;DHT22;7938;47.666;9.434;2023-01-10T07:44:44;3.40;99.90
15676;DHT22;7938;47.666;9.434;2023-01-10T07:47:10;3.30;99.90
15676;DHT22;7938;47.666;9.434;2023-01-10T07:49:37;3.30;99.90
15676;DHT22;7938;47.666;9.434;2023-01-10T07:52:05;3.30;99.90
15676;DHT22;7938;47.666;9.434;2023-01-10T07:54:35;3.40;99.90
15676;DHT22;7938;47.666;9.434;2023-01-10T07:57:02;3.40;99.90
15676;DHT22;7938;47.666;9.434;2023-01-10T07:59:28;3.40;99.90
15676;DHT22;7938;47.666;9.434;2023-01-10T08:01:55;3.50;99.90
15676;DHT22;7938;47.666;9.434;2023-01-10T08:04:22;3.50;99.90
15676;DHT22;7938;47.666;9.434;2023-01-10T08:06:49;3.50;99.90
15676;DHT22;7938;47.666;9.434;2023-01-10T08:09:16;3.50;99.90
15676;DHT22;7938;47.666;9.434;2023-01-10T08:11:44;3.60;99.90
15676;DHT22;7938;47.666;9.434;2023-01-10T08:14:11;3.60;99.90
15676;DHT22;7938;47.666;9.434;2023-01-10T08:16:38;3.60;99.90
15676;DHT22;7938;47.666;9.434;2023-01-10T08:19:05;3.60;99.90
15676;DHT22;7938;47.666;9.434;2023-01-10T08:21:32;3.70;99.90
15676;DHT22;7938;47.666;9.434;2023-01-10T08:23:59;3.70;99.90
15676;DHT22;7938;47.666;9.434;2023-01-10T08:26:26;3.70;99.90
15676;DHT22;7938;47.666;9.434;2023-01-10T08:28:54;3.80;99.90
15676;DHT22;7938;47.666;9.434;2023-01-10T08:31:21;4.00;99.90
15676;DHT22;7938;47.666;9.434;2023-01-10T08:33:48;4.00;99.90
15676;DHT22;7938;47.666;9.434;2023-01-10T08:36:16;4.00;99.90
15676;DHT22;7938;47.666;9.434;2023-01-10T08:38:43;4.10;99.90
15676;DHT22;7938;47.666;9.434;2023-01-10T08:41:10;4.00;99.90
15676;DHT22;7938;47.666;9.434;2023-01-10T08:43:38;4.00;99.90
15676;DHT22;7938;47.666;9.434;2023-01-10T08:46:06;4.30;99.90
15676;DHT22;7938;47.666;9.434;2023-01-10T08:48:33;4.20;99.90
15676;DHT22;7938;47.666;9.434;2023-01-10T08:51:05;4.10;99.90
15676;DHT22;7938;47.666;9.434;2023-01-10T08:53:32;4.10;99.90
15676;DHT22;7938;47.666;9.434;2023-01-10T08:55:59;4.10;99.90
15676;DHT22;7938;47.666;9.434;2023-01-10T08:58:26;4.10;99.90
15676;DHT22;7938;47.666;9.434;2023-01-10T09:00:53;4.10;99.90
15676;DHT22;7938;47.666;9.434;2023-01-10T09:03:21;4.10;99.90
15676;DHT22;7938;47.666;9.434;2023-01-10T09:05:48;4.10;99.90
15676;DHT22;7938;47.666;9.434;2023-01-10T09:08:15;4.20;99.90
15676;DHT22;7938;47.666;9.434;2023-01-10T09:10:42;4.40;99.90
15676;DHT22;7938;47.666;9.434;2023-01-10T09:13:08;4.40;99.90
15676;DHT22;7938;47.666;9.434;2023-01-10T09:15:36;4.60;99.90
15676;DHT22;7938;47.666;9.434;2023-01-10T09:18:05;4.60;99.90
15676;DHT22;7938;47.666;9.434;2023-01-10T09:20:35;4.70;99.90
15676;DHT22;7938;47.666;9.434;2023-01-10T09:23:04;4.70;99.90
15676;DHT22;7938;47.666;9.434;2023-01-10T09:25:33;4.70;99.90
15676;DHT22;7938;47.666;9.434;2023-01-10T09:28:01;4.70;99.90
15676;DHT22;7938;47.666;9.434;2023-01-10T09:30:29;4.80;99.90
15676;DHT22;7938;47.666;9.434;2023-01-10T09:32:57;4.80;99.90
15676;DHT22;7938;47.666;9.434;2023-01-10T09:35:25;4.80;99.90
15676;DHT22;7938;47.666;9.434;2023-01-10T09:37:55;4.90;99.90
15676;DHT22;7938;47.666;9.434;2023-01-10T09:40:32;5.00;99.90
15676;DHT22;7938;47.666;9.434;2023-01-10T09:43:09;5.00;99.90
15676;DHT22;7938;47.666;9.434;2023-01-10T09:45:47;5.00;99.90
15676;DHT22;7938;47.666;9.434;2023-01-10T09:48:22;5.10;99.90
15676;DHT22;7938;47.666;9.434;2023-01-10T09:51:04;5.10;99.90
15676;DHT22;7938;47.666;9.434;2023-01-10T09:53:39;5.20;99.90
15676;DHT22;7938;47.666;9.434;2023-01-10T09:56:08;5.20;99.90
15676;DHT22;7938;47.666;9.434;2023-01-10T09:58:36;5.10;99.90
15676;DHT22;7938;47.666;9.434;2023-01-10T10:01:06;5.00;99.90
15676;DHT22;7938;47.666;9.434;2023-01-10T10:03:40;5.00;99.90
15676;DHT22;7938;47.666;9.434;2023-01-10T10:06:10;4.90;99.90
15676;DHT22;7938;47.666;9.434;2023-01-10T10:08:39;4.90;99.90
15676;DHT22;7938;47.666;9.434;2023-01-10T10:11:27;5.00;99.90
15676;DHT22;7938;47.666;9.434;2023-01-10T10:14:02;5.00;99.90
15676;DHT22;7938;47.666;9.434;2023-01-10T10:16:44;5.10;99.90
15676;DHT22;7938;47.666;9.434;2023-01-10T10:19:20;5.20;99.90
15676;DHT22;7938;47.666;9.434;2023-01-10T10:21:53;5.30;99.90
15676;DHT22;7938;47.666;9.434;2023-01-10T10:24:33;5.30;99.90
15676;DHT22;7938;47.666;9.434;2023-01-10T10:27:11;5.30;99.90
15676;DHT22;7938;47.666;9.434;2023-01-10T10:29:53;5.40;99.90
15676;DHT22;7938;47.666;9.434;2023-01-10T10:32:41;5.40;99.90
15676;DHT22;7938;47.666;9.434;2023-01-10T10:35:15;5.40;99.90
15676;DHT22;7938;47.666;9.434;2023-01-10T10:37:46;5.50;99.90
15676;DHT22;7938;47.666;9.434;2023-01-10T10:40:20;5.40;99.90
15676;DHT22;7938;47.666;9.434;2023-01-10T10:42:49;5.40;99.90
15676;DHT22;7938;47.666;9.434;2023-01-10T10:45:20;5.40;99.90
15676;DHT22;7938;47.666;9.434;2023-01-10T10:47:52;5.40;99.90
15676;DHT22;7938;47.666;9.434;2023-01-10T10:50:26;5.40;99.90
15676;DHT22;7938;47.666;9.434;2023-01-10T10:52:54;5.40;99.90
15676;DHT22;7938;47.666;9.434;2023-01-10T10:55:28;5.50;99.90
15676;DHT22;7938;47.666;9.434;2023-01-10T10:57:56;5.50;99.90
15676;DHT22;7938;47.666;9.434;2023-01-10T11:00:23;5.60;99.90
15676;DHT22;7938;47.666;9.434;2023-01-10T11:02:54;5.60;99.90
15676;DHT22;7938;47.666;9.434;2023-01-10T11:05:30;5.60;99.90
15676;DHT22;7938;47.666;9.434;2023-01-10T11:08:01;5.60;99.90
15676;DHT22;7938;47.666;9.434;2023-01-10T11:10:32;5.80;99.90
15676;DHT22;7938;47.666;9.434;2023-01-10T11:13:07;5.90;99.90
15676;DHT22;7938;47.666;9.434;2023-01-10T11:15:40;6.00;99.90
15676;DHT22;7938;47.666;9.434;2023-01-10T11:18:11;6.10;99.90
15676;DHT22;7938;47.666;9.434;2023-01-10T11:20:47;6.30;99.90
15676;DHT22;7938;47.666;9.434;2023-01-10T11:23:34;6.30;99.90
15676;DHT22;7938;47.666;9.434;2023-01-10T11:26:04;6.30;99.90
15676;DHT22;7938;47.666;9.434;2023-01-10T11:28:33;6.30;99.90
15676;DHT22;7938;47.666;9.434;2023-01-10T11:31:01;6.30;99.90
15676;DHT22;7938;47.666;9.434;2023-01-10T11:33:30;6.30;99.90
15676;DHT22;7938;47.666;9.434;2023-01-10T11:36:01;6.20;99.90
15676;DHT22;7938;47.666;9.434;2023-01-10T11:38:29;6.20;99.90
15676;DHT22;7938;47.666;9.434;2023-01-10T11:40:58;6.20;99.90
15676;DHT22;7938;47.666;9.434;2023-01-10T11:43:32;6.30;99.90
15676;DHT22;7938;47.666;9.434;2023-01-10T11:46:01;6.30;99.90
15676;DHT22;7938;47.666;9.434;2023-01-10T11:48:41;6.40;99.90
15676;DHT22;7938;47.666;9.434;2023-01-10T11:51:18;6.40;99.90
15676;DHT22;7938;47.666;9.434;2023-01-10T11:53:46;6.30;99.90
15676;DHT22;7938;47.666;9.434;2023-01-10T11:56:23;6.30;99.90
15676;DHT22;7938;47.666;9.434;2023-01-10T11:58:52;6.20;99.90
15676;DHT22;7938;47.666;9.434;2023-01-10T12:01:29;6.10;99.90
15676;DHT22;7938;47.666;9.434;2023-01-10T12:03:57;6.10;99.90
15676;DHT22;7938;47.666;9.434;2023-01-10T12:06:24;6.10;99.90
15676;DHT22;7938;47.666;9.434;2023-01-10T12:08:52;6.10;99.90
15676;DHT22;7938;47.666;9.434;2023-01-10T12:11:29;6.10;99.90
15676;DHT22;7938;47.666;9.434;2023-01-10T12:13:59;6.10;99.90
15676;DHT22;7938;47.666;9.434;2023-01-10T12:16:27;6.20;99.90
15676;DHT22;7938;47.666;9.434;2023-01-10T12:18:57;6.40;99.90
15676;DHT22;7938;47.666;9.434;2023-01-10T12:21:30;6.40;99.90
15676;DHT22;7938;47.666;9.434;2023-01-10T12:24:01;6.40;99.90
15676;DHT22;7938;47.666;9.434;2023-01-10T12:26:30;6.40;99.90
15676;DHT22;7938;47.666;9.434;2023-01-10T12:29:06;6.40;99.90
15676;DHT22;7938;47.666;9.434;2023-01-10T12:31:35;6.50;99.90
15676;DHT22;7938;47.666;9.434;2023-01-10T12:34:09;6.60;99.90
15676;DHT22;7938;47.666;9.434;2023-01-10T12:36:43;6.70;99.90
15676;DHT22;7938;47.666;9.434;2023-01-10T12:39:19;6.80;99.90
15676;DHT22;7938;47.666;9.434;2023-01-10T12:41:56;6.70;99.90
15676;DHT22;7938;47.666;9.434;2023-01-10T12:44:45;6.70;99.90
15676;DHT22;7938;47.666;9.434;2023-01-10T12:47:21;6.60;99.90
15676;DHT22;7938;47.666;9.434;2023-01-10T12:49:54;6.50;99.90
15676;DHT22;7938;47.666;9.434;2023-01-10T12:52:33;6.40;99.90
15676;DHT22;7938;47.666;9.434;2023-01-10T12:55:12;6.40;99.90
15676;DHT22;7938;47.666;9.434;2023-01-10T12:57:40;6.30;99.90
15676;DHT22;7938;47.666;9.434;2023-01-10T13:00:19;6.30;99.90
15676;DHT22;7938;47.666;9.434;2023-01-10T13:02:51;6.30;99.90
15676;DHT22;7938;47.666;9.434;2023-01-10T13:05:20;6.30;99.90
15676;DHT22;7938;47.666;9.434;2023-01-10T13:07:49;6.20;99.90
15676;DHT22;7938;47.666;9.434;2023-01-10T13:10:19;6.10;99.90
15676;DHT22;7938;47.666;9.434;2023-01-10T13:12:52;6.10;99.90
15676;DHT22;7938;47.666;9.434;2023-01-10T13:15:27;6.10;99.90
15676;DHT22;7938;47.666;9.434;2023-01-10T13:17:58;6.20;99.90
15676;DHT22;7938;47.666;9.434;2023-01-10T13:20:29;6.20;99.90
15676;DHT22;7938;47.666;9.434;2023-01-10T13:23:12;6.10;99.90
15676;DHT22;7938;47.666;9.434;2023-01-10T13:25:40;6.00;99.90
15676;DHT22;7938;47.666;9.434;2023-01-10T13:28:17;6.10;99.90
15676;DHT22;7938;47.666;9.434;2023-01-10T13:30:51;6.10;99.90
15676;DHT22;7938;47.666;9.434;2023-01-10T13:33:21;6.10;99.90
15676;DHT22;7938;47.666;9.434;2023-01-10T13:35:49;6.00;99.90
15676;DHT22;7938;47.666;9.434;2023-01-10T13:38:18;5.90;99.90
15676;DHT22;7938;47.666;9.434;2023-01-10T13:40:57;5.70;99.90
15676;DHT22;7938;47.666;9.434;2023-01-10T13:43:40;5.70;99.90
15676;DHT22;7938;47.666;9.434;2023-01-10T13:46:39;5.70;99.90
15676;DHT22;7938;47.666;9.434;2023-01-10T13:52:37;5.80;99.90
15676;DHT22;7938;47.666;9.434;2023-01-10T13:55:25;5.90;99.90
15676;DHT22;7938;47.666;9.434;2023-01-10T13:57:55;6.10;99.90
15676;DHT22;7938;47.666;9.434;2023-01-10T14:00:26;6.60;99.90
15676;DHT22;7938;47.666;9.434;2023-01-10T14:03:45;6.60;99.90
15676;DHT22;7938;47.666;9.434;2023-01-10T14:06:36;7.00;99.90
15676;DHT22;7938;47.666;9.434;2023-01-10T14:09:34;7.20;99.90
15676;DHT22;7938;47.666;9.434;2023-01-10T14:12:04;7.40;99.90
15676;DHT22;7938;47.666;9.434;2023-01-10T14:14:34;7.30;99.90
15676;DHT22;7938;47.666;9.434;2023-01-10T14:17:13;7.30;99.90
15676;DHT22;7938;47.666;9.434;2023-01-10T14:19:43;7.20;99.90
15676;DHT22;7938;47.666;9.434;2023-01-10T14:22:24;7.00;99.90
15676;DHT22;7938;47.666;9.434;2023-01-10T14:24:52;7.00;99.90
15676;DHT22;7938;47.666;9.434;2023-01-10T14:27:20;7.00;99.90
15676;DHT22;7938;47.666;9.434;2023-01-10T14:29:52;6.90;99.90
15676;DHT22;7938;47.666;9.434;2023-01-10T14:32:29;6.60;99.90
15676;DHT22;7938;47.666;9.434;2023-01-10T14:35:03;6.50;99.90
15676;DHT22;7938;47.666;9.434;2023-01-10T14:37:33;6.50;99.90
15676;DHT22;7938;47.666;9.434;2023-01-10T14:40:13;6.40;99.90
15676;DHT22;7938;47.666;9.434;2023-01-10T14:42:41;6.30;99.90
15676;DHT22;7938;47.666;9.434;2023-01-10T14:45:18;6.20;99.90
15676;DHT22;7938;47.666;9.434;2023-01-10T14:47:45;6.20;99.90
15676;DHT22;7938;47.666;9.434;2023-01-10T14:50:24;6.10;99.90
15676;DHT22;7938;47.666;9.434;2023-01-10T14:52:53;6.10;99.90
15676;DHT22;7938;47.666;9.434;2023-01-10T14:55:21;6.10;99.90
15676;DHT22;7938;47.666;9.434;2023-01-10T14:57:55;6.10;99.90
15676;DHT22;7938;47.666;9.434;2023-01-10T15:00:28;5.90;99.90
15676;DHT22;7938;47.666;9.434;2023-01-10T15:02:57;5.90;99.90
15676;DHT22;7938;47.666;9.434;2023-01-10T15:05:29;5.90;99.90
15676;DHT22;7938;47.666;9.434;2023-01-10T15:08:15;5.90;99.90
15676;DHT22;7938;47.666;9.434;2023-01-10T15:10:43;5.70;99.90
15676;DHT22;7938;47.666;9.434;2023-01-10T15:13:14;5.70;99.90
15676;DHT22;7938;47.666;9.434;2023-01-10T15:15:45;5.60;99.90
15676;DHT22;7938;47.666;9.434;2023-01-10T15:18:23;5.50;99.90
15676;DHT22;7938;47.666;9.434;2023-01-10T15:20:52;5.30;99.90
15676;DHT22;7938;47.666;9.434;2023-01-10T15:23:19;5.30;99.90
15676;DHT22;7938;47.666;9.434;2023-01-10T15:25:54;5.20;99.90
15676;DHT22;7938;47.666;9.434;2023-01-10T15:28:22;5.00;99.90
15676;DHT22;7938;47.666;9.434;2023-01-10T15:30:49;4.80;99.90
15676;DHT22;7938;47.666;9.434;2023-01-10T15:33:22;4.80;99.90
15676;DHT22;7938;47.666;9.434;2023-01-10T15:35:49;4.80;99.90
15676;DHT22;7938;47.666;9.434;2023-01-10T15:38:20;4.70;99.90
15676;DHT22;7938;47.666;9.434;2023-01-10T15:40:54;4.50;99.90
15676;DHT22;7938;47.666;9.434;2023-01-10T15:43:25;4.50;99.90
15676;DHT22;7938;47.666;9.434;2023-01-10T15:45:54;4.50;99.90
15676;DHT22;7938;47.666;9.434;2023-01-10T15:48:27;4.40;99.90
15676;DHT22;7938;47.666;9.434;2023-01-10T15:50:56;4.40;99.90
15676;DHT22;7938;47.666;9.434;2023-01-10T15:53:58;4.30;99.90
15676;DHT22;7938;47.666;9.434;2023-01-10T15:56:34;4.30;99.90
15676;DHT22;7938;47.666;9.434;2023-01-10T15:59:03;4.20;99.90
15676;DHT22;7938;47.666;9.434;2023-01-10T16:01:32;4.20;99.90
15676;DHT22;7938;47.666;9.434;2023-01-10T16:04:01;4.10;99.90
15676;DHT22;7938;47.666;9.434;2023-01-10T16:06:31;4.10;99.90
15676;DHT22;7938;47.666;9.434;2023-01-10T16:09:01;4.10;99.90
15676;DHT22;7938;47.666;9.434;2023-01-10T16:11:37;4.10;99.90
15676;DHT22;7938;47.666;9.434;2023-01-10T16:14:22;4.10;99.90
15676;DHT22;7938;47.666;9.434;2023-01-10T16:16:49;4.00;99.90
15676;DHT22;7938;47.666;9.434;2023-01-10T16:19:16;4.00;99.90
15676;DHT22;7938;47.666;9.434;2023-01-10T16:21:45;3.90;99.90
15676;DHT22;7938;47.666;9.434;2023-01-10T16:24:17;3.80;99.90
15676;DHT22;7938;47.666;9.434;2023-01-10T16:26:46;3.80;99.90
15676;DHT22;7938;47.666;9.434;2023-01-10T16:29:13;3.70;99.90
15676;DHT22;7938;47.666;9.434;2023-01-10T16:31:40;3.50;99.90
15676;DHT22;7938;47.666;9.434;2023-01-10T16:34:07;3.50;99.90
15676;DHT22;7938;47.666;9.434;2023-01-10T16:36:34;3.40;99.90
15676;DHT22;7938;47.666;9.434;2023-01-10T16:39:05;3.30;99.90
15676;DHT22;7938;47.666;9.434;2023-01-10T16:41:35;3.10;99.90
15676;DHT22;7938;47.666;9.434;2023-01-10T16:44:19;3.00;99.90
15676;DHT22;7938;47.666;9.434;2023-01-10T16:46:46;2.90;99.90
15676;DHT22;7938;47.666;9.434;2023-01-10T16:49:15;2.80;99.90
15676;DHT22;7938;47.666;9.434;2023-01-10T16:51:42;2.70;99.90
15676;DHT22;7938;47.666;9.434;2023-01-10T16:54:13;2.60;99.90
15676;DHT22;7938;47.666;9.434;2023-01-10T16:56:42;2.60;99.90
15676;DHT22;7938;47.666;9.434;2023-01-10T16:59:10;2.50;99.90
15676;DHT22;7938;47.666;9.434;2023-01-10T17:01:39;2.50;99.90
15676;DHT22;7938;47.666;9.434;2023-01-10T17:04:09;2.50;99.90
15676;DHT22;7938;47.666;9.434;2023-01-10T17:06:37;2.50;99.90
15676;DHT22;7938;47.666;9.434;2023-01-10T17:09:06;2.40;99.90
15676;DHT22;7938;47.666;9.434;2023-01-10T17:11:36;2.30;99.90
15676;DHT22;7938;47.666;9.434;2023-01-10T17:14:05;2.20;99.90
15676;DHT22;7938;47.666;9.434;2023-01-10T17:16:32;2.20;99.90
15676;DHT22;7938;47.666;9.434;2023-01-10T17:19:00;2.10;99.90
15676;DHT22;7938;47.666;9.434;2023-01-10T17:21:27;2.00;99.90
15676;DHT22;7938;47.666;9.434;2023-01-10T17:23:54;2.00;99.90
15676;DHT22;7938;47.666;9.434;2023-01-10T17:26:21;1.90;99.90
15676;DHT22;7938;47.666;9.434;2023-01-10T17:28:48;1.90;99.90
15676;DHT22;7938;47.666;9.434;2023-01-10T17:31:16;1.90;99.90
15676;DHT22;7938;47.666;9.434;2023-01-10T17:33:45;1.90;99.90
15676;DHT22;7938;47.666;9.434;2023-01-10T17:36:13;1.80;99.90
15676;DHT22;7938;47.666;9.434;2023-01-10T17:38:40;1.80;99.90
15676;DHT22;7938;47.666;9.434;2023-01-10T17:41:08;1.70;99.90
15676;DHT22;7938;47.666;9.434;2023-01-10T17:43:36;1.70;99.90
15676;DHT22;7938;47.666;9.434;2023-01-10T17:46:03;1.70;99.90
15676;DHT22;7938;47.666;9.434;2023-01-10T17:48:32;1.70;99.90
15676;DHT22;7938;47.666;9.434;2023-01-10T17:51:00;1.70;99.90
15676;DHT22;7938;47.666;9.434;2023-01-10T17:53:28;1.70;99.90
15676;DHT22;7938;47.666;9.434;2023-01-10T17:55:56;1.80;99.90
15676;DHT22;7938;47.666;9.434;2023-01-10T17:58:24;1.80;99.90
15676;DHT22;7938;47.666;9.434;2023-01-10T18:00:51;1.90;99.90
15676;DHT22;7938;47.666;9.434;2023-01-10T18:03:18;1.90;99.90
15676;DHT22;7938;47.666;9.434;2023-01-10T18:05:50;2.00;99.90
15676;DHT22;7938;47.666;9.434;2023-01-10T18:08:17;2.10;99.90
15676;DHT22;7938;47.666;9.434;2023-01-10T18:10:44;2.00;99.90
15676;DHT22;7938;47.666;9.434;2023-01-10T18:13:13;2.00;99.90
15676;DHT22;7938;47.666;9.434;2023-01-10T18:15:40;2.20;99.90
15676;DHT22;7938;47.666;9.434;2023-01-10T18:18:08;2.20;99.90
15676;DHT22;7938;47.666;9.434;2023-01-10T18:20:39;2.30;99.90
15676;DHT22;7938;47.666;9.434;2023-01-10T18:23:10;2.30;99.90
15676;DHT22;7938;47.666;9.434;2023-01-10T18:25:53;2.30;99.90
15676;DHT22;7938;47.666;9.434;2023-01-10T18:28:21;2.30;99.90
15676;DHT22;7938;47.666;9.434;2023-01-10T18:30:48;2.10;99.90
15676;DHT22;7938;47.666;9.434;2023-01-10T18:33:15;2.10;99.90
15676;DHT22;7938;47.666;9.434;2023-01-10T18:35:42;2.40;99.90
15676;DHT22;7938;47.666;9.434;2023-01-10T18:38:10;2.10;99.90
15676;DHT22;7938;47.666;9.434;2023-01-10T18:40:40;2.00;99.90
15676;DHT22;7938;47.666;9.434;2023-01-10T18:43:08;2.00;99.90
15676;DHT22;7938;47.666;9.434;2023-01-10T18:45:40;2.00;99.90
15676;DHT22;7938;47.666;9.434;2023-01-10T18:48:07;2.00;99.90
15676;DHT22;7938;47.666;9.434;2023-01-10T18:50:34;2.20;99.90
15676;DHT22;7938;47.666;9.434;2023-01-10T18:53:01;2.20;99.90
15676;DHT22;7938;47.666;9.434;2023-01-10T18:55:30;2.20;99.90
15676;DHT22;7938;47.666;9.434;2023-01-10T18:57:57;2.20;99.90
15676;DHT22;7938;47.666;9.434;2023-01-10T19:00:24;2.30;99.90
15676;DHT22;7938;47.666;9.434;2023-01-10T19:02:51;2.30;99.90
15676;DHT22;7938;47.666;9.434;2023-01-10T19:05:19;2.30;99.90
15676;DHT22;7938;47.666;9.434;2023-01-10T19:07:46;2.30;99.90
15676;DHT22;7938;47.666;9.434;2023-01-10T19:10:13;2.30;99.90
15676;DHT22;7938;47.666;9.434;2023-01-10T19:12:41;2.40;99.90
15676;DHT22;7938;47.666;9.434;2023-01-10T19:15:09;2.50;99.90
15676;DHT22;7938;47.666;9.434;2023-01-10T19:17:36;2.50;99.90
15676;DHT22;7938;47.666;9.434;2023-01-10T19:20:03;2.50;99.90
15676;DHT22;7938;47.666;9.434;2023-01-10T19:22:30;2.50;99.90
15676;DHT22;7938;47.666;9.434;2023-01-10T19:24:57;2.50;99.90
15676;DHT22;7938;47.666;9.434;2023-01-10T19:27:24;2.50;99.90
15676;DHT22;7938;47.666;9.434;2023-01-10T19:29:53;2.50;99.90
15676;DHT22;7938;47.666;9.434;2023-01-10T19:32:20;2.40;99.90
15676;DHT22;7938;47.666;9.434;2023-01-10T19:34:47;2.40;99.90
15676;DHT22;7938;47.666;9.434;2023-01-10T19:37:14;2.40;99.90
15676;DHT22;7938;47.666;9.434;2023-01-10T19:39:41;2.50;99.90
15676;DHT22;7938;47.666;9.434;2023-01-10T19:42:08;2.70;99.90
15676;DHT22;7938;47.666;9.434;2023-01-10T19:44:35;2.70;99.90
15676;DHT22;7938;47.666;9.434;2023-01-10T19:47:03;2.90;99.90
15676;DHT22;7938;47.666;9.434;2023-01-10T19:49:30;3.20;99.90
15676;DHT22;7938;47.666;9.434;2023-01-10T19:52:01;3.40;99.90
15676;DHT22;7938;47.666;9.434;2023-01-10T19:54:28;3.50;99.90
15676;DHT22;7938;47.666;9.434;2023-01-10T19:56:56;3.50;99.90
15676;DHT22;7938;47.666;9.434;2023-01-10T19:59:23;3.60;99.90
15676;DHT22;7938;47.666;9.434;2023-01-10T20:01:52;3.60;99.90
15676;DHT22;7938;47.666;9.434;2023-01-10T20:04:20;3.60;99.90
15676;DHT22;7938;47.666;9.434;2023-01-10T20:06:48;3.60;99.90
15676;DHT22;7938;47.666;9.434;2023-01-10T20:09:15;3.60;99.90
15676;DHT22;7938;47.666;9.434;2023-01-10T20:14:12;3.60;99.90
15676;DHT22;7938;47.666;9.434;2023-01-10T20:16:40;3.60;99.90
15676;DHT22;7938;47.666;9.434;2023-01-10T20:19:07;3.50;99.90
15676;DHT22;7938;47.666;9.434;2023-01-10T20:21:37;3.50;99.90
15676;DHT22;7938;47.666;9.434;2023-01-10T20:24:08;3.50;99.90
15676;DHT22;7938;47.666;9.434;2023-01-10T20:26:36;3.60;99.90
15676;DHT22;7938;47.666;9.434;2023-01-10T20:29:03;3.60;99.90
15676;DHT22;7938;47.666;9.434;2023-01-10T20:31:31;3.80;99.90
15676;DHT22;7938;47.666;9.434;2023-01-10T20:33:58;3.80;99.90
15676;DHT22;7938;47.666;9.434;2023-01-10T20:36:26;3.90;99.90
15676;DHT22;7938;47.666;9.434;2023-01-10T20:38:56;3.90;99.90
15676;DHT22;7938;47.666;9.434;2023-01-10T20:41:24;4.10;99.90
15676;DHT22;7938;47.666;9.434;2023-01-10T20:43:52;4.20;99.90
15676;DHT22;7938;47.666;9.434;2023-01-10T20:46:21;4.30;99.90
15676;DHT22;7938;47.666;9.434;2023-01-10T20:48:49;4.30;99.90
15676;DHT22;7938;47.666;9.434;2023-01-10T20:51:17;4.40;99.90
15676;DHT22;7938;47.666;9.434;2023-01-10T20:53:45;4.40;99.90
15676;DHT22;7938;47.666;9.434;2023-01-10T20:56:15;4.40;99.90
15676;DHT22;7938;47.666;9.434;2023-01-10T20:58:42;4.50;99.90
15676;DHT22;7938;47.666;9.434;2023-01-10T21:01:10;4.40;99.90
15676;DHT22;7938;47.666;9.434;2023-01-10T21:03:39;4.40;99.90
15676;DHT22;7938;47.666;9.434;2023-01-10T21:06:06;4.30;99.90
15676;DHT22;7938;47.666;9.434;2023-01-10T21:08:34;4.30;99.90
15676;DHT22;7938;47.666;9.434;2023-01-10T21:11:02;4.30;99.90
15676;DHT22;7938;47.666;9.434;2023-01-10T21:13:31;4.30;99.90
15676;DHT22;7938;47.666;9.434;2023-01-10T21:16:00;4.30;99.90
15676;DHT22;7938;47.666;9.434;2023-01-10T21:18:30;4.20;99.90
15676;DHT22;7938;47.666;9.434;2023-01-10T21:20:58;4.20;99.90
15676;DHT22;7938;47.666;9.434;2023-01-10T21:23:26;4.60;99.90
15676;DHT22;7938;47.666;9.434;2023-01-10T21:25:58;4.20;99.90
15676;DHT22;7938;47.666;9.434;2023-01-10T21:28:25;4.30;99.90